Time;durP1;ratioP1;P1;durP2;ratioP2;P2;SDS_P1;SDS_P2;PMS_P1;PMS_P2;Temp;Humidity;BMP_temperature;BMP_pressure;BME280_temperature;BME280_humidity;BME280_pressure;Samples;Min_cycle;Max_cycle;Signal;HPM_P1;HPM_P2
2021/10/24 00:00:09;;;;;;;21.68;10.43;;;;;;;5.13;86.68;101925.30;1705164;81;25986;-80
2021/10/24 00:02:40;;;;;;;21.60;11.75;;;;;;;5.14;86.55;101928.33;1711317;82;25886;-80
2021/10/24 00:05:08;;;;;;;21.45;10.10;;;;;;;5.11;86.38;101931.72;1674516;82;27316;-81
2021/10/24 00:07:35;;;;;;;19.52;9.63;;;;;;;5.10;86.26;101925.55;1666893;82;25857;-80
2021/10/24 00:10:04;;;;;;;23.85;10.72;;;;;;;5.06;86.16;101933.39;1723729;81;25832;-81
2021/10/24 00:12:31;;;;;;;22.85;10.38;;;;;;;5.02;85.88;101932.42;1748658;81;25771;-81
2021/10/24 00:14:58;;;;;;;23.07;10.45;;;;;;;4.96;85.95;101937.70;1722234;81;25836;-80
2021/10/24 00:17:25;;;;;;;23.52;9.90;;;;;;;4.94;86.07;101935.65;1687538;81;27568;-80
2021/10/24 00:19:52;;;;;;;18.05;9.35;;;;;;;4.93;86.06;101937.11;1721638;81;25905;-80
2021/10/24 00:22:19;;;;;;;21.50;9.65;;;;;;;4.91;85.88;101946.53;1747445;81;25834;-81
2021/10/24 00:24:46;;;;;;;20.57;9.88;;;;;;;4.88;85.89;101945.42;1728485;81;26665;-80
2021/10/24 00:27:13;;;;;;;22.90;9.78;;;;;;;4.84;85.88;101948.42;1688264;81;25928;-81
2021/10/24 00:29:40;;;;;;;21.25;10.05;;;;;;;4.80;85.95;101954.94;1718094;81;27706;-81
2021/10/24 00:32:07;;;;;;;23.73;10.38;;;;;;;4.77;85.92;101954.68;1745648;81;25787;-81
2021/10/24 00:34:35;;;;;;;19.37;8.98;;;;;;;4.73;86.01;101950.57;1734582;81;25836;-80
2021/10/24 00:37:02;;;;;;;27.02;9.98;;;;;;;4.71;85.98;101948.52;1699163;81;25865;-80
2021/10/24 00:39:29;;;;;;;20.05;9.18;;;;;;;4.68;86.05;101951.42;1723343;81;25890;-80
2021/10/24 00:41:56;;;;;;;17.20;8.33;;;;;;;4.68;85.75;101954.89;1744896;81;27612;-81
2021/10/24 00:44:32;;;;;;;19.70;9.68;;;;;;;4.65;85.57;101950.31;1724633;81;25902;-80
2021/10/24 00:47:02;;;;;;;22.52;9.25;;;;;;;4.60;85.61;101947.15;1685214;81;26657;-81
2021/10/24 00:49:29;;;;;;;21.90;9.75;;;;;;;4.60;85.66;101953.78;1726804;81;26505;-80
2021/10/24 00:51:56;;;;;;;20.68;8.65;;;;;;;4.59;85.72;101948.13;1736629;81;26177;-81
2021/10/24 00:54:26;;;;;;;23.40;9.03;;;;;;;4.59;85.75;101954.76;1718940;80;27506;-80
2021/10/24 00:56:55;;;;;;;17.47;9.17;;;;;;;4.60;85.81;101953.78;1697789;81;25973;-80
2021/10/24 00:59:25;;;;;;;19.98;9.30;;;;;;;4.59;85.72;101954.76;1708660;82;25871;-81
2021/10/24 01:01:53;;;;;;;22.42;9.00;;;;;;;4.60;85.79;101963.92;1740528;81;25876;-81
2021/10/24 01:04:20;;;;;;;22.35;9.28;;;;;;;4.60;85.78;101952.45;1748416;81;25710;-80
2021/10/24 01:06:54;;;;;;;15.78;9.23;;;;;;;4.60;85.83;101963.06;1699221;81;27655;-80
2021/10/24 01:09:21;;;;;;;18.42;9.03;;;;;;;4.62;85.84;101960.67;1742294;81;25986;-81
2021/10/24 01:11:50;;;;;;;19.70;9.78;;;;;;;4.63;85.93;101957.07;1743508;81;25839;-81
2021/10/24 01:14:17;;;;;;;18.05;8.83;;;;;;;4.61;85.83;101956.81;1725800;81;26601;-81
2021/10/24 01:16:45;;;;;;;21.37;9.60;;;;;;;4.58;85.82;101947.27;1708934;81;25799;-80
2021/10/24 01:19:15;;;;;;;18.95;8.80;;;;;;;4.56;85.90;101962.47;1726285;81;27573;-81
2021/10/24 01:21:42;;;;;;;19.92;8.58;;;;;;;4.56;85.98;101983.69;1741105;81;25870;-80
2021/10/24 01:24:09;;;;;;;20.90;8.85;;;;;;;4.51;85.70;101957.97;1717788;81;25812;-81
2021/10/24 01:26:38;;;;;;;17.77;9.20;;;;;;;4.49;85.88;101965.20;1699631;81;26092;-80
2021/10/24 01:29:08;;;;;;;18.50;9.80;;;;;;;4.48;86.10;101968.83;1693418;84;25827;-80
2021/10/24 01:31:37;;;;;;;20.30;8.78;;;;;;;4.46;86.19;101968.10;1753996;81;27670;-81
2021/10/24 01:34:05;;;;;;;24.50;10.30;;;;;;;4.43;86.54;101964.34;1759257;80;25968;-82
2021/10/24 01:36:34;;;;;;;20.05;9.05;;;;;;;4.43;86.69;101968.79;1683638;82;25429;-81
2021/10/24 01:39:02;;;;;;;21.62;11.63;;;;;;;4.43;86.73;101963.02;1676481;83;25961;-80
2021/10/24 01:41:29;;;;;;;24.40;10.05;;;;;;;4.45;86.87;101969.52;1714767;82;25982;-80
2021/10/24 01:43:57;;;;;;;16.57;8.60;;;;;;;4.49;86.85;101973.67;1646492;83;28186;-80
2021/10/24 01:46:24;;;;;;;18.73;9.50;;;;;;;4.47;86.72;101974.27;1706113;83;26602;-80
2021/10/24 01:48:52;;;;;;;17.32;11.60;;;;;;;4.48;86.80;101970.63;1705303;82;25931;-81
2021/10/24 01:51:20;;;;;;;18.98;10.53;;;;;;;4.47;87.00;101961.81;1661075;83;25850;-80
2021/10/24 01:53:48;;;;;;;25.95;13.58;;;;;;;4.48;87.16;101956.03;1679012;83;25781;-81
2021/10/24 01:56:15;;;;;;;20.65;10.43;;;;;;;4.50;87.28;101960.27;1737647;81;27565;-81
2021/10/24 01:58:44;;;;;;;17.70;9.10;;;;;;;4.50;87.32;101965.58;1745555;81;26509;-80
2021/10/24 02:01:12;;;;;;;22.27;9.18;;;;;;;4.52;87.27;101971.62;1689504;82;25771;-81
2021/10/24 02:03:57;;;;;;;20.20;9.35;;;;;;;4.56;87.33;101974.88;1729427;81;25874;-80
2021/10/24 02:06:27;;;;;;;20.85;8.93;;;;;;;4.60;87.33;101981.64;1754908;79;25921;-80
2021/10/24 02:08:54;;;;;;;18.48;9.88;;;;;;;4.60;87.25;101976.34;1698253;81;27986;-81
2021/10/24 02:11:22;;;;;;;22.40;9.33;;;;;;;4.58;87.23;101982.24;1697145;81;25851;-80
2021/10/24 02:13:50;;;;;;;17.12;8.43;;;;;;;4.55;87.29;101974.53;1714044;81;25498;-81
2021/10/24 02:16:18;;;;;;;18.20;9.10;;;;;;;4.54;87.42;101976.80;1706661;81;26224;-80
2021/10/24 02:18:47;;;;;;;26.15;9.75;;;;;;;4.52;87.41;101978.25;1733896;81;26002;-80
2021/10/24 02:21:14;;;;;;;23.30;9.48;;;;;;;4.50;87.30;101974.87;1686400;81;28206;-81
2021/10/24 02:23:41;;;;;;;20.15;9.30;;;;;;;4.48;87.35;101967.98;1703729;81;26085;-80
2021/10/24 02:26:11;;;;;;;18.73;9.60;;;;;;;4.50;87.40;101980.65;1733696;81;25830;-81
2021/10/24 02:28:38;;;;;;;20.37;9.70;;;;;;;4.50;87.34;101987.28;1663239;84;26250;-80
2021/10/24 02:31:06;;;;;;;16.42;9.15;;;;;;;4.46;87.15;101991.12;1694637;81;25959;-81
2021/10/24 02:33:47;;;;;;;;;;;;;;;4.43;87.16;101992.19;1715287;81;28305;-80
2021/10/24 02:36:22;;;;;;;15.32;8.48;;;;;;;4.46;87.36;102001.73;1731962;81;25972;-80
2021/10/24 02:38:50;;;;;;;22.37;9.75;;;;;;;4.41;87.30;102002.55;1732719;81;25420;-80
2021/10/24 02:41:17;;;;;;;23.75;9.70;;;;;;;4.37;87.27;102000.61;1707118;81;25812;-81
2021/10/24 02:43:45;;;;;;;19.37;10.00;;;;;;;4.38;87.36;101998.81;1708276;81;25879;-81
2021/10/24 02:46:13;;;;;;;23.15;10.03;;;;;;;4.38;87.40;101998.34;1737235;81;27571;-80
2021/10/24 02:48:40;;;;;;;20.08;10.13;;;;;;;4.39;87.41;101993.86;1677084;81;25825;-80
2021/10/24 02:51:07;;;;;;;19.05;8.58;;;;;;;4.39;87.40;102007.98;1709892;81;25834;-81
2021/10/24 02:53:35;;;;;;;22.22;9.20;;;;;;;4.38;87.26;102007.62;1709974;81;25940;-81
2021/10/24 02:56:04;;;;;;;22.20;9.60;;;;;;;4.39;87.18;102010.63;1734970;81;25393;-80
2021/10/24 02:58:31;;;;;;;20.12;8.73;;;;;;;4.37;87.10;102017.00;1673282;81;27229;-81
2021/10/24 03:00:58;;;;;;;17.07;9.43;;;;;;;4.33;87.24;102014.20;1684218;81;25978;-80
2021/10/24 03:03:26;;;;;;;27.13;12.65;;;;;;;4.33;87.48;102017.72;1712327;81;25740;-81
2021/10/24 03:05:53;;;;;;;21.07;10.60;;;;;;;4.34;87.61;102018.06;1737029;81;25862;-81
2021/10/24 03:08:21;;;;;;;20.85;10.75;;;;;;;4.34;87.66;102024.70;1720145;81;26010;-81
2021/10/24 03:10:48;;;;;;;19.02;10.28;;;;;;;4.33;87.63;102024.81;1724060;81;27529;-80
2021/10/24 03:13:15;;;;;;;22.02;10.38;;;;;;;4.32;87.79;102024.47;1697172;81;25809;-80
2021/10/24 03:15:44;;;;;;;18.42;10.48;;;;;;;4.34;87.88;102029.17;1718728;81;25979;-80
2021/10/24 03:18:12;;;;;;;25.52;11.30;;;;;;;4.34;87.90;102024.70;1745417;81;25792;-81
2021/10/24 03:20:39;;;;;;;19.60;10.48;;;;;;;4.36;88.01;102033.89;1721825;81;25923;-81
2021/10/24 03:23:07;;;;;;;20.10;10.63;;;;;;;4.35;88.09;102035.69;1644021;82;27568;-80
2021/10/24 03:25:34;;;;;;;25.12;11.03;;;;;;;4.34;88.00;102045.91;1665434;82;25998;-80
2021/10/24 03:28:02;;;;;;;19.77;9.95;;;;;;;4.36;88.20;102043.17;1710525;82;25806;-80
2021/10/24 03:30:30;;;;;;;24.27;11.22;;;;;;;4.37;88.09;102039.08;1714724;82;26163;-81
2021/10/24 03:32:59;;;;;;;25.45;11.95;;;;;;;4.36;87.93;102042.67;1688845;84;25844;-81
2021/10/24 03:35:26;;;;;;;19.92;10.50;;;;;;;4.33;87.82;102049.55;1689921;82;27338;-80
2021/10/24 03:37:53;;;;;;;24.85;12.00;;;;;;;4.30;87.63;102056.89;1718196;82;25853;-81
2021/10/24 03:40:20;;;;;;;19.67;10.48;;;;;;;4.28;87.66;102060.95;1693997;82;25882;-81
2021/10/24 03:42:47;;;;;;;25.17;12.58;;;;;;;4.28;87.77;102053.00;1670736;82;25569;-81
2021/10/24 03:45:15;;;;;;;21.57;11.43;;;;;;;4.28;87.87;102055.66;1665683;82;25819;-82
2021/10/24 03:47:42;;;;;;;26.17;11.85;;;;;;;4.29;87.97;102065.78;1712892;82;27617;-80
2021/10/24 03:50:10;;;;;;;29.27;11.90;;;;;;;4.32;87.94;102073.03;1691698;82;26053;-80
2021/10/24 03:52:37;;;;;;;21.80;11.90;;;;;;;4.35;87.91;102070.17;1666785;82;25898;-80
2021/10/24 03:55:10;;;;;;;20.75;12.43;;;;;;;4.39;88.00;102076.95;1669995;82;25891;-81
2021/10/24 03:57:34;;;;;;;26.00;11.85;;;;;;;4.40;88.01;102082.64;1713333;82;26517;-81
2021/10/24 04:00:01;;;;;;;25.32;11.65;;;;;;;4.45;88.11;102086.25;1692190;82;27598;-81
2021/10/24 04:02:29;;;;;;;22.20;11.85;;;;;;;4.45;88.03;102085.78;1668877;82;25389;-80
2021/10/24 04:04:57;;;;;;;23.12;10.65;;;;;;;4.46;87.99;102072.90;1670237;82;25852;-81
2021/10/24 04:07:24;;;;;;;26.02;12.03;;;;;;;4.45;88.00;102077.83;1712347;82;26246;-80
2021/10/24 04:09:51;;;;;;;23.30;12.13;;;;;;;4.46;88.10;102086.16;1674745;83;25871;-81
2021/10/24 04:12:18;;;;;;;25.35;12.68;;;;;;;4.47;88.00;102085.70;1657722;83;28209;-81
2021/10/24 04:14:45;;;;;;;27.07;13.03;;;;;;;4.49;88.12;102086.42;1630498;85;25927;-82
2021/10/24 04:17:14;;;;;;;28.67;14.10;;;;;;;4.49;88.27;102081.95;1699013;83;26526;-80
2021/10/24 04:19:43;;;;;;;31.07;14.90;;;;;;;4.51;88.29;102075.22;1649817;83;25966;-80
2021/10/24 04:22:10;;;;;;;24.63;14.45;;;;;;;4.50;88.30;102078.82;1648037;83;25877;-80
2021/10/24 04:24:38;;;;;;;26.75;13.70;;;;;;;4.50;88.36;102075.69;1654835;84;27553;-81
2021/10/24 04:27:05;;;;;;;32.10;15.35;;;;;;;4.52;88.43;102079.55;1701336;83;26030;-81
2021/10/24 04:29:32;;;;;;;28.12;13.95;;;;;;;4.51;88.49;102082.68;1672630;83;25960;-80
2021/10/24 04:31:59;;;;;;;31.87;14.75;;;;;;;4.53;88.56;102080.76;1653134;83;25846;-80
2021/10/24 04:34:27;;;;;;;33.35;15.55;;;;;;;4.55;88.56;102080.20;1651648;83;25999;-80
2021/10/24 04:36:54;;;;;;;40.90;16.52;;;;;;;4.54;88.60;102088.25;1699801;81;27562;-80
2021/10/24 04:39:21;;;;;;;31.62;15.80;;;;;;;4.54;88.61;102084.27;1700515;83;26370;-79
2021/10/24 04:41:49;;;;;;;31.57;14.35;;;;;;;4.59;88.77;102087.45;1654414;83;25942;-81
2021/10/24 04:44:16;;;;;;;36.45;16.00;;;;;;;4.61;88.74;102085.52;1652901;83;25992;-80
2021/10/24 04:46:43;;;;;;;46.13;17.48;;;;;;;4.59;88.70;102093.61;1701155;83;26533;-80
2021/10/24 04:49:10;;;;;;;33.65;16.85;;;;;;;4.60;88.75;102095.28;1704921;83;27444;-81
2021/10/24 04:51:37;;;;;;;37.73;16.75;;;;;;;4.56;88.67;102099.13;1676124;83;26448;-80
2021/10/24 04:54:06;;;;;;;42.50;17.45;;;;;;;4.53;88.75;102104.64;1650150;83;25858;-80
2021/10/24 04:56:33;;;;;;;39.35;17.52;;;;;;;4.50;88.86;102104.87;1699968;83;25608;-80
2021/10/24 04:59:00;;;;;;;37.48;17.07;;;;;;;4.51;88.95;102107.06;1654043;83;26019;-81
2021/10/24 05:01:29;;;;;;;50.00;18.05;;;;;;;4.52;89.18;102102.11;1674280;83;27619;-80
2021/10/24 05:03:56;;;;;;;43.17;17.10;;;;;;;4.50;89.19;102112.84;1663284;81;25874;-80
2021/10/24 05:06:24;;;;;;;46.20;17.12;;;;;;;4.48;89.34;102117.41;1710624;81;25874;-80
2021/10/24 05:08:53;;;;;;;39.65;16.25;;;;;;;4.47;89.47;102117.03;1682855;83;25958;-80
2021/10/24 05:11:20;;;;;;;40.83;16.75;;;;;;;4.44;89.41;102129.67;1691343;83;25927;-81
2021/10/24 05:13:47;;;;;;;40.20;16.48;;;;;;;4.44;89.60;102129.67;1715740;81;27208;-80
2021/10/24 05:16:14;;;;;;;40.43;15.50;;;;;;;4.47;89.71;102135.59;1747776;81;25357;-80
2021/10/24 05:18:42;;;;;;;48.35;16.87;;;;;;;4.48;89.73;102135.13;1730278;79;25866;-80
2021/10/24 05:21:09;;;;;;;32.33;17.85;;;;;;;4.47;89.75;102135.59;1712171;79;26543;-80
2021/10/24 05:23:36;;;;;;;40.98;16.50;;;;;;;4.49;89.83;102147.45;1707724;81;26554;-81
2021/10/24 05:26:04;;;;;;;48.45;17.73;;;;;;;4.49;89.91;102145.63;1747193;81;27486;-81
2021/10/24 05:28:33;;;;;;;38.42;15.38;;;;;;;4.50;89.88;102152.64;1727763;79;26480;-81
2021/10/24 05:31:00;;;;;;;48.17;15.95;;;;;;;4.47;89.78;102158.16;1734146;81;26028;-81
2021/10/24 05:33:27;;;;;;;48.02;16.00;;;;;;;4.45;89.76;102153.91;1688992;80;25778;-80
2021/10/24 05:35:56;;;;;;;32.50;17.32;;;;;;;4.49;90.00;102152.26;1751436;79;26081;-81
2021/10/24 05:38:24;;;;;;;42.58;17.25;;;;;;;4.50;89.91;102153.11;1736431;79;27443;-81
2021/10/24 05:40:53;;;;;;;41.08;17.80;;;;;;;4.54;90.01;102147.95;1739667;79;25868;-80
2021/10/24 05:43:20;;;;;;;46.90;18.77;;;;;;;4.55;90.00;102150.98;1741836;81;25957;-81
2021/10/24 05:45:47;;;;;;;52.83;21.93;;;;;;;4.53;89.98;102148.92;1749991;81;25793;-81
2021/10/24 05:48:15;;;;;;;56.45;22.37;;;;;;;4.52;90.05;102156.03;1722672;81;25888;-80
2021/10/24 05:50:44;;;;;;;52.08;22.62;;;;;;;4.51;89.92;102157.47;1722606;81;28285;-80
2021/10/24 05:53:12;;;;;;;50.23;21.30;;;;;;;4.50;90.08;102156.63;1671738;81;26282;-81
2021/10/24 05:55:39;;;;;;;49.90;19.45;;;;;;;4.51;90.14;102154.82;1744354;81;25996;-80
2021/10/24 05:58:06;;;;;;;54.80;21.40;;;;;;;4.49;90.16;102161.55;1721360;81;25977;-81
2021/10/24 06:00:35;;;;;;;47.08;20.43;;;;;;;4.45;90.10;102156.56;1697209;81;25838;-81
2021/10/24 06:03:21;;;;;;;48.45;20.48;;;;;;;4.46;90.33;102163.11;1701832;82;27357;-81
2021/10/24 06:06:05;;;;;;;48.78;20.20;;;;;;;4.47;90.30;102169.27;1741187;81;26177;-80
2021/10/24 06:08:32;;;;;;;48.92;20.48;;;;;;;4.48;90.26;102174.92;1714016;81;26564;-81
2021/10/24 06:11:13;;;;;;;59.60;25.82;;;;;;;4.44;90.14;102185.39;1709688;81;25805;-80
2021/10/24 06:13:28;;;;;;;49.38;21.25;;;;;;;4.42;90.22;102190.82;1682145;81;25822;-81
2021/10/24 06:15:55;;;;;;;60.78;20.90;;;;;;;4.43;90.39;102192.50;1736734;81;28210;-80
2021/10/24 06:18:22;;;;;;;40.48;19.67;;;;;;;4.44;90.36;102192.88;1709452;81;25748;-80
2021/10/24 06:20:50;;;;;;;39.98;17.50;;;;;;;4.42;90.35;102198.78;1708945;79;26078;-81
2021/10/24 06:23:17;;;;;;;48.23;20.35;;;;;;;4.40;90.39;102199.84;1682918;81;25817;-80
2021/10/24 06:25:46;;;;;;;43.58;17.67;;;;;;;4.37;90.33;102206.20;1734347;81;26565;-80
2021/10/24 06:28:15;;;;;;;42.83;18.27;;;;;;;4.37;90.66;102217.28;1716803;80;28069;-80
2021/10/24 06:30:43;;;;;;;53.30;18.90;;;;;;;4.34;90.52;102218.34;1687858;81;25925;-80
2021/10/24 06:33:13;;;;;;;50.90;18.45;;;;;;;4.35;90.56;102226.69;1701033;81;25812;-80
2021/10/24 06:35:57;;;;;;;44.55;19.30;;;;;;;4.37;90.49;102231.41;1713244;82;25904;-81
2021/10/24 06:38:43;;;;;;;44.25;19.35;;;;;;;4.36;90.46;102230.19;1708043;80;25863;-81
2021/10/24 06:53:54;;;;;;;46.95;21.65;;;;;;;5.27;88.74;102239.89;1838830;77;25812;-80
2021/10/24 06:56:40;;;;;;;43.55;17.95;;;;;;;5.11;89.07;102245.94;1814000;78;26286;-81
2021/10/24 06:59:09;;;;;;;45.33;20.80;;;;;;;5.05;89.42;102249.05;1742507;81;27523;-80
2021/10/24 07:01:38;;;;;;;44.85;18.70;;;;;;;5.00;89.60;102256.99;1639939;81;25934;-81
2021/10/24 07:04:12;;;;;;;38.35;17.70;;;;;;;4.90;89.53;102253.31;1698264;81;25830;-82
2021/10/24 07:06:41;;;;;;;42.60;17.55;;;;;;;4.88;89.87;102259.17;1743504;81;25938;-82
2021/10/24 07:09:09;;;;;;;32.40;17.98;;;;;;;4.87;90.02;102257.50;1779943;79;25957;-82
2021/10/24 07:11:37;;;;;;;33.00;17.10;;;;;;;4.82;89.96;102257.82;1693327;81;27641;-81
2021/10/24 07:14:04;;;;;;;43.90;18.70;;;;;;;4.85;89.97;102260.74;1729859;79;25769;-81
2021/10/24 07:16:31;;;;;;;61.70;18.12;;;;;;;4.86;90.04;102266.41;1792762;79;25714;-83
2021/10/24 07:18:58;;;;;;;35.40;16.23;;;;;;;4.86;90.06;102265.94;1788960;79;25813;-80
2021/10/24 07:21:25;;;;;;;37.98;16.20;;;;;;;4.85;90.18;102268.70;1742977;79;25976;-80
2021/10/24 07:23:53;;;;;;;32.25;16.45;;;;;;;4.83;89.93;102266.64;1696352;81;28355;-80
2021/10/24 07:26:22;;;;;;;31.52;17.60;;;;;;;4.84;90.09;102277.61;1795852;79;26443;-80
2021/10/24 07:28:50;;;;;;;31.07;18.15;;;;;;;4.86;90.33;102267.26;1761843;78;26258;-81
2021/10/24 07:31:18;;;;;;;32.83;19.60;;;;;;;4.93;90.59;102269.00;1738740;79;26177;-80
2021/10/24 07:33:47;;;;;;;36.53;16.40;;;;;;;4.97;90.61;102279.77;1753554;78;25906;-80
2021/10/24 07:36:16;;;;;;;33.75;17.85;;;;;;;4.93;90.14;102279.16;1789785;79;28617;-80
2021/10/24 07:38:44;;;;;;;34.08;17.15;;;;;;;4.92;90.33;102278.77;1746886;80;25893;-80
2021/10/24 07:41:12;;;;;;;25.72;16.40;;;;;;;4.98;90.66;102290.77;1713663;80;26523;-80
2021/10/24 07:43:40;;;;;;;31.05;15.28;;;;;;;5.00;90.37;102288.38;1675956;80;26228;-80
2021/10/24 07:46:08;;;;;;;45.05;18.75;;;;;;;5.02;90.23;102290.45;1728624;80;25885;-80
2021/10/24 07:48:35;;;;;;;35.73;19.45;;;;;;;5.05;90.28;102294.66;1749384;81;28181;-80
2021/10/24 07:51:04;;;;;;;36.98;19.02;;;;;;;5.05;90.42;102283.57;1699652;82;25810;-79
2021/10/24 07:53:31;;;;;;;37.13;19.60;;;;;;;5.11;90.70;102291.09;1691794;82;26025;-81
2021/10/24 07:56:02;;;;;;;57.30;33.35;;;;;;;5.15;90.53;102291.73;1733197;82;26501;-82
2021/10/24 07:58:47;;;;;;;43.25;24.18;;;;;;;5.20;90.56;102289.11;1726093;82;25893;-80
2021/10/24 08:01:16;;;;;;;46.55;21.97;;;;;;;5.27;90.80;102292.17;1711904;82;28287;-80
2021/10/24 08:03:46;;;;;;;39.80;20.97;;;;;;;5.27;90.27;102294.36;1719575;81;25929;-80
2021/10/24 08:06:21;;;;;;;48.68;21.80;;;;;;;5.27;90.31;102299.67;1767050;80;26171;-81
2021/10/24 08:08:45;;;;;;;44.05;21.27;;;;;;;5.31;90.06;102299.81;1722516;81;26369;-81
2021/10/24 08:11:12;;;;;;;40.83;22.17;;;;;;;5.30;89.98;102298.09;1705244;82;25791;-82
2021/10/24 08:13:39;;;;;;;37.23;20.88;;;;;;;5.32;90.29;102308.13;1685355;81;27287;-82
2021/10/24 08:16:06;;;;;;;35.20;19.45;;;;;;;5.38;90.34;102311.70;1784882;80;25279;-82
2021/10/24 08:18:33;;;;;;;36.60;22.35;;;;;;;5.40;90.10;102310.25;1765810;80;25322;-81
2021/10/24 08:21:14;;;;;;;47.38;22.00;;;;;;;5.40;90.10;102307.59;1712350;80;25775;-82
2021/10/24 08:23:44;;;;;;;45.28;23.95;;;;;;;5.41;89.87;102303.95;1709392;80;25973;-81
2021/10/24 08:26:12;;;;;;;43.60;21.65;;;;;;;5.41;90.02;102307.94;1741788;81;27579;-81
2021/10/24 08:28:39;;;;;;;37.90;22.50;;;;;;;5.42;89.87;102306.52;1779653;80;25772;-82
2021/10/24 08:31:06;;;;;;;41.83;24.02;;;;;;;5.44;90.11;102303.27;1715133;80;25844;-81
2021/10/24 08:33:39;;;;;;;38.17;21.85;;;;;;;5.45;89.87;102308.11;1711717;81;25934;-81
2021/10/24 08:36:06;;;;;;;44.35;22.00;;;;;;;5.44;89.75;102311.72;1765220;80;25810;-81
2021/10/24 08:38:33;;;;;;;36.88;22.48;;;;;;;5.41;89.89;102319.42;1741611;81;27623;-81
2021/10/24 08:41:02;;;;;;;39.10;21.35;;;;;;;5.41;89.65;102319.42;1692472;81;26017;-80
2021/10/24 08:43:32;;;;;;;37.93;20.88;;;;;;;5.42;89.73;102325.59;1677494;82;25874;-81
2021/10/24 08:46:00;;;;;;;40.70;22.95;;;;;;;5.46;89.97;102325.27;1763168;80;25850;-80
2021/10/24 08:48:27;;;;;;;42.55;26.87;;;;;;;5.52;90.01;102323.95;1760227;80;25753;-80
2021/10/24 08:50:55;;;;;;;40.80;24.05;;;;;;;5.60;90.00;102328.73;1696971;81;27471;-80
2021/10/24 08:53:25;;;;;;;39.33;23.27;;;;;;;5.65;89.73;102327.41;1725696;81;25781;-80
2021/10/24 08:55:54;;;;;;;40.05;23.47;;;;;;;5.71;90.05;102323.48;1759293;81;25754;-80
2021/10/24 08:58:21;;;;;;;45.03;24.37;;;;;;;5.71;89.62;102330.12;1759880;80;26211;-81
2021/10/24 09:00:49;;;;;;;41.00;23.80;;;;;;;5.71;89.47;102328.28;1725340;78;26326;-82
2021/10/24 09:03:16;;;;;;;44.23;24.47;;;;;;;5.75;89.89;102325.77;1723938;82;27526;-81
2021/10/24 09:05:47;;;;;;;50.00;30.80;;;;;;;5.75;89.45;102327.09;1747770;81;25357;-80
2021/10/24 09:08:17;;;;;;;44.05;28.45;;;;;;;5.77;89.52;102332.32;1744682;81;25976;-80
2021/10/24 09:10:54;;;;;;;39.23;24.57;;;;;;;5.76;89.06;102326.15;1695331;81;26389;-82
2021/10/24 09:13:28;;;;;;;42.08;23.05;;;;;;;5.78;89.33;102336.19;1705359;81;25885;-82
2021/10/24 09:16:03;;;;;;;52.45;33.70;;;;;;;5.83;89.10;102342.50;1752876;80;28344;-83
2021/10/24 09:18:34;;;;;;;51.95;30.70;;;;;;;5.82;88.98;102342.97;1747657;81;25865;-81
2021/10/24 09:21:22;;;;;;;47.83;27.07;;;;;;;5.85;89.24;102339.27;1738262;78;25374;-81
2021/10/24 09:24:10;;;;;;;53.28;32.48;;;;;;;5.89;89.47;102344.73;1755988;80;26464;-81
2021/10/24 09:26:39;;;;;;;49.65;31.77;;;;;;;5.87;88.73;102347.98;1752663;81;25849;-83
2021/10/24 09:29:11;;;;;;;45.03;27.60;;;;;;;5.84;88.93;102345.54;1762258;81;27623;-81
2021/10/24 09:31:41;;;;;;;53.10;32.98;;;;;;;5.87;89.05;102342.66;1714309;81;26203;-82
2021/10/24 09:34:23;;;;;;;49.95;29.35;;;;;;;5.91;88.86;102340.14;1724053;81;25880;-81
2021/10/24 09:37:01;;;;;;;45.78;26.40;;;;;;;5.95;88.96;102348.25;1754141;81;25866;-82
2021/10/24 09:39:46;;;;;;;47.88;26.68;;;;;;;5.98;88.91;102348.04;1758254;81;26007;-81
2021/10/24 09:42:22;;;;;;;50.45;27.62;;;;;;;6.01;89.28;102350.45;1688888;81;26989;-81
2021/10/24 09:45:08;;;;;;;43.40;27.60;;;;;;;6.04;89.19;102347.09;1727707;80;25356;-79
2021/10/24 09:47:45;;;;;;;52.15;28.20;;;;;;;6.09;89.19;102350.23;1765674;80;25743;-84
2021/10/24 09:50:35;;;;;;;44.67;27.27;;;;;;;6.12;89.27;102354.02;1734962;81;25899;-80
2021/10/24 09:53:15;;;;;;;43.10;26.20;;;;;;;6.15;88.78;102357.78;1730764;81;26591;-80
2021/10/24 09:55:56;;;;;;;42.10;24.77;;;;;;;6.13;88.44;102365.04;1709858;81;27419;-81
2021/10/24 09:58:28;;;;;;;;;;;;;;;6.11;88.31;102363.45;1763078;80;25902;-80
2021/10/24 10:00:55;;;;;;;37.28;22.65;;;;;;;6.10;88.13;102366.59;1728462;81;25940;-80
2021/10/24 10:03:24;;;;;;;37.33;22.37;;;;;;;6.06;88.07;102365.59;1731551;81;25746;-80
2021/10/24 10:05:52;;;;;;;36.20;21.90;;;;;;;6.09;87.99;102361.39;1705564;81;25790;-81
2021/10/24 10:08:19;;;;;;;41.68;24.27;;;;;;;6.12;88.17;102363.33;1716507;81;27279;-80
2021/10/24 10:11:19;;;;;;;40.30;24.72;;;;;;;6.19;88.48;102367.23;1734830;81;25706;-80
2021/10/24 10:13:50;;;;;;;39.27;22.50;;;;;;;6.26;88.44;102367.62;1760023;81;25832;-80
2021/10/24 10:16:20;;;;;;;37.03;23.67;;;;;;;6.32;88.36;102366.30;1731422;80;26494;-81
2021/10/24 10:19:01;;;;;;;91.45;53.10;;;;;;;6.37;88.45;102362.81;1748104;81;25843;-80
2021/10/24 10:21:44;;;;;;;43.65;26.77;;;;;;;6.43;88.52;102372.98;1743951;81;27467;-81
2021/10/24 10:24:35;;;;;;;46.15;28.15;;;;;;;6.46;88.32;102377.58;1750328;80;25826;-80
2021/10/24 10:27:22;;;;;;;37.03;23.70;;;;;;;6.48;88.28;102378.82;1695293;81;25890;-79
2021/10/24 10:29:55;;;;;;;34.70;21.12;;;;;;;6.47;88.10;102380.62;1657658;85;26627;-79
2021/10/24 10:32:46;;;;;;;45.60;25.52;;;;;;;6.41;87.48;102379.77;1702867;81;25882;-80
2021/10/24 10:35:23;;;;;;;35.05;21.90;;;;;;;6.41;87.68;102378.91;1700165;81;28321;-79
2021/10/24 10:38:04;;;;;;;40.08;23.52;;;;;;;6.44;87.84;102378.66;1712502;82;25837;-79
2021/10/24 10:40:41;;;;;;;40.40;23.90;;;;;;;6.44;87.81;102370.67;1726751;81;25910;-79
2021/10/24 10:43:15;;;;;;;38.85;22.77;;;;;;;6.42;87.69;102373.94;1748791;81;25913;-79
2021/10/24 10:45:46;;;;;;;38.53;23.55;;;;;;;6.39;87.59;102374.19;1713078;81;25783;-79
2021/10/24 10:48:32;;;;;;;;;;;;;;;6.40;87.90;102373.20;1734265;81;27482;-80
2021/10/24 10:51:06;;;;;;;37.70;23.12;;;;;;;6.44;87.67;102369.34;1759807;80;25901;-80
2021/10/24 10:53:57;;;;;;;37.48;22.93;;;;;;;6.43;87.84;102365.86;1728263;81;25855;-81
2021/10/24 10:56:43;;;;;;;37.75;22.90;;;;;;;6.49;88.05;102361.86;1721593;81;25838;-80
2021/10/24 10:59:28;;;;;;;32.67;20.10;;;;;;;6.53;88.09;102372.16;1715739;81;25987;-79
2021/10/24 11:02:16;;;;;;;30.43;19.07;;;;;;;6.58;88.25;102358.50;1747431;81;27510;-80
2021/10/24 11:04:52;;;;;;;34.98;21.40;;;;;;;6.66;88.06;102360.08;1725602;81;26109;-80
2021/10/24 11:07:43;;;;;;;30.32;20.08;;;;;;;6.68;88.01;102360.34;1679673;81;25883;-81
2021/10/24 11:10:17;;;;;;;33.73;20.12;;;;;;;6.74;87.74;102363.84;1743067;80;25888;-80
2021/10/24 11:12:47;;;;;;;32.30;20.60;;;;;;;6.74;87.34;102361.66;1729197;81;26087;-82
2021/10/24 11:15:27;;;;;;;33.70;20.92;;;;;;;6.71;87.15;102364.11;1717797;81;27383;-81
2021/10/24 11:17:56;;;;;;;34.27;21.97;;;;;;;6.73;87.26;102364.83;1725837;81;34919;-80
2021/10/24 11:20:42;;;;;;;37.63;22.37;;;;;;;6.76;87.31;102359.25;1757102;80;25832;-79
2021/10/24 11:23:13;;;;;;;36.10;22.50;;;;;;;6.76;87.10;102357.91;1736379;80;25826;-80
2021/10/24 11:25:41;;;;;;;36.85;23.18;;;;;;;6.74;87.32;102358.52;1730318;80;26423;-79
2021/10/24 11:28:16;;;;;;;37.45;24.12;;;;;;;6.76;87.32;102359.25;1702388;81;27557;-79
2021/10/24 11:30:45;;;;;;;39.83;22.75;;;;;;;6.80;87.54;102361.21;1711286;81;25823;-79
2021/10/24 11:33:13;;;;;;;31.80;21.65;;;;;;;6.87;87.53;102363.26;1736976;81;26473;-80
2021/10/24 11:35:42;;;;;;;36.17;22.65;;;;;;;6.91;87.48;102361.19;1718905;81;26250;-79
2021/10/24 11:38:13;;;;;;;38.67;24.90;;;;;;;6.92;87.44;102364.23;1721235;81;25903;-80
2021/10/24 11:40:45;;;;;;;42.20;27.10;;;;;;;6.90;87.10;102361.70;1699939;81;27499;-80
2021/10/24 11:43:23;;;;;;;40.88;24.20;;;;;;;6.87;87.08;102365.06;1749196;80;25381;-80
2021/10/24 11:45:54;;;;;;;42.25;26.55;;;;;;;6.88;87.07;102358.78;1727420;81;26638;-80